Latest Weather Observations for Rhyll

IDV60801

Issued at 3:42 pm EDT Saturday 22 February 2020 (issued every 10 minutes, with the page automatically refreshed every 10 minutes)

About weather observations | Map of weather stations | Latest weather observations for VIC | Other Formats
Station Details ID: 086373 Name: RHYLL Lat: -38.46 Lon: 145.31 Height: 13.4 m
Data from the previous 72 hours. | See also: Recent months at Rhyll
Date/Time
EDT
Temp
°C
App
Temp
°C
Dew
Point
°C
Rel
Hum
%
Delta-T
°C
Wind Press
QNH
hPa
Press
MSL
hPa
Rain since
9am
mm
Dir  Spd
km/h
Gust
km/h
Spd
kts
Gust
kts
22/03:30pm 19.5 15.7 11.0 58 4.6 SSE 22 30 12 16 1022.5 1022.5 0.0
22/03:00pm 19.8 15.9 10.8 56 4.9 SSE 22 30 12 16 1022.8 1022.8 0.0
22/02:30pm 20.8 18.3 10.9 53 5.4 S 15 22 8 12 1022.8 1022.8 0.0
22/02:00pm 21.1 18.9 12.0 56 5.1 S 15 22 8 12 1023.0 1023.0 0.0
22/01:30pm 20.4 17.7 10.2 52 5.5 S 15 24 8 13 1023.1 1023.1 0.0
22/01:00pm 20.6 18.1 9.8 50 5.8 S 13 19 7 10 1023.4 1023.4 0.0
22/12:30pm 20.2 17.3 9.5 50 5.7 SSE 15 20 8 11 1023.8 1023.8 0.0
22/12:00pm 20.2 18.3 9.2 49 5.8 S 9 15 5 8 1024.0 1024.0 0.0
22/11:30am 19.7 17.4 9.0 50 5.6 SSE 11 17 6 9 1024.1 1024.1 0.0
22/11:00am 19.1 16.9 9.3 53 5.1 SSE 11 17 6 9 1024.1 1024.1 0.0
22/10:30am 18.8 16.7 9.6 55 4.9 SE 11 15 6 8 1024.2 1024.2 0.0
22/10:00am 18.8 16.7 9.6 55 4.8 SE 11 17 6 9 1024.1 1024.1 0.0
22/09:30am 17.9 16.1 9.5 58 4.4 S 9 15 5 8 1024.0 1024.0 0.0
22/09:00am 17.7 15.6 9.6 59 4.2 SE 11 17 6 9 1023.9 1023.9 0.0
22/08:30am 16.7 13.4 9.4 62 3.8 ESE 17 20 9 11 1023.6 1023.6 0.0
22/08:00am 15.8 12.8 9.2 65 3.4 ESE 15 20 8 11 1023.4 1023.4 0.0
22/07:30am 14.6 12.0 9.2 70 2.8 ESE 13 19 7 10 1023.1 1023.1 0.0
22/07:00am 14.1 11.3 8.5 69 2.8 ESE 13 19 7 10 1022.8 1022.8 0.0
22/06:30am 13.9 10.7 8.5 70 2.7 ESE 15 19 8 10 1022.6 1022.6 0.0
22/06:00am 14.0 10.9 9.0 72 2.5 ESE 15 19 8 10 1022.5 1022.5 0.0
22/05:30am 13.5 11.7 9.4 76 2.1 ESE 9 13 5 7 1022.5 1022.5 0.0
22/05:00am 13.4 11.2 9.3 76 2.1 ESE 11 13 6 7 1022.3 1022.3 0.0
22/04:30am 13.1 10.8 9.0 76 2.1 E 11 15 6 8 1022.3 1022.3 0.0
22/04:00am 13.5 10.5 9.2 75 2.2 E 15 19 8 10 1022.4 1022.4 0.0
22/03:30am 13.7 10.7 9.2 74 2.3 E 15 20 8 11 1022.6 1022.6 0.0
22/03:00am 14.7 11.5 9.9 73 2.5 ESE 17 20 9 11 1022.6 1022.6 0.0
22/02:30am 14.9 11.4 10.1 73 2.5 ESE 19 22 10 12 1022.9 1022.9 0.0
22/02:00am 14.9 12.0 9.7 71 2.7 SE 15 22 8 12 1023.0 1023.0 0.0
22/01:30am 15.3 12.8 9.7 69 2.9 SE 13 19 7 10 1023.4 1023.4 0.0
22/01:00am 15.4 13.2 9.5 68 3.0 SE 11 19 6 10 1023.5 1023.5 0.0
22/12:30am 15.3 12.7 9.2 67 3.1 SSE 13 17 7 9 1023.4 1023.4 0.0
22/12:00am 14.9 12.1 8.6 66 3.2 SSE 13 19 7 10 1023.3 1023.3 0.0
 
Date/Time
EDT
Temp
°C
App
Temp
°C
Dew
Point
°C
Rel
Hum
%
Delta-T
°C
Wind Press
QNH
hPa
Press
MSL
hPa
Rain since
9am
mm
Dir  Spd
km/h
Gust
km/h
Spd
kts
Gust
kts
21/11:30pm 14.8 11.6 8.5 66 3.2 SSE 15 22 8 12 1023.2 1023.2 0.0
21/11:00pm 14.9 12.1 8.4 65 3.3 SSE 13 22 7 12 1023.2 1023.2 0.0
21/10:30pm 14.8 11.7 8.7 67 3.1 SSE 15 20 8 11 1023.1 1023.1 0.0
21/10:00pm 14.8 12.1 9.0 68 2.9 S 13 22 7 12 1022.9 1022.9 0.0
21/09:30pm 14.6 11.9 8.8 68 2.9 S 13 19 7 10 1022.7 1022.7 0.0
21/09:00pm 14.6 12.2 8.5 67 3.1 S 11 17 6 9 1022.4 1022.4 0.0
21/08:30pm 14.9 12.1 8.6 66 3.2 S 13 20 7 11 1022.3 1022.3 0.0
21/08:00pm 15.4 12.7 8.9 65 3.3 S 13 19 7 10 1022.1 1022.1 0.0
21/07:30pm 16.1 13.2 8.3 60 4.0 S 13 19 7 10 1021.9 1021.9 0.0
21/07:00pm 16.9 14.4 9.6 62 3.8 S 13 22 7 12 1021.6 1021.6 0.0
21/06:30pm 17.0 14.2 8.7 58 4.3 S 13 22 7 12 1021.4 1021.4 0.0
21/06:00pm 18.1 15.2 9.7 58 4.4 S 15 24 8 13 1021.2 1021.2 0.0
21/05:30pm 17.8 15.1 10.2 61 4.0 S 15 24 8 13 1021.1 1021.1 0.0
21/05:00pm 18.5 15.9 10.8 61 4.1 S 15 22 8 12 1021.1 1021.1 0.0
21/04:30pm 18.4 16.4 10.3 59 4.3 S 11 20 6 11 1021.0 1021.0 0.0
21/04:00pm 18.5 16.2 9.0 54 4.9 S 11 26 6 14 1021.0 1021.0 0.0
21/03:30pm 19.1 16.5 9.3 53 5.2 S 13 20 7 11 1021.1 1021.1 0.0
21/03:00pm 19.0 16.7 10.6 58 4.5 S 13 22 7 12 1021.3 1021.3 0.0
21/02:30pm 20.0 18.2 11.0 56 4.9 S 11 19 6 10 1021.3 1021.3 0.0
21/02:00pm 19.7 17.6 9.6 52 5.4 S 11 24 6 13 1021.4 1021.4 0.0
21/01:30pm 19.6 17.0 9.5 52 5.4 S 13 19 7 10 1021.2 1021.2 0.0
21/01:00pm 20.1 17.9 10.8 55 5.1 S 13 20 7 11 1021.2 1021.2 0.0
21/12:30pm 19.4 17.0 9.9 54 5.1 S 13 19 7 10 1021.2 1021.2 0.0
21/12:00pm 18.6 16.3 10.4 59 4.4 S 13 19 7 10 1021.2 1021.2 0.0
21/11:30am 18.9 16.4 11.0 60 4.3 SSE 15 20 8 11 1021.0 1021.0 0.0
21/11:00am 18.6 16.5 11.2 62 4.0 S 13 22 7 12 1020.7 1020.7 0.0
21/10:30am 16.9 14.4 11.2 69 3.1 S 15 22 8 12 1020.7 1020.7 0.0
21/10:00am 17.2 14.7 11.0 67 3.3 S 15 24 8 13 1020.2 1020.2 0.0
21/09:30am 16.7 15.1 11.4 71 2.9 S 11 19 6 10 1019.8 1019.8 0.0
21/09:00am 17.0 15.0 11.5 70 3.0 S 13 19 7 10 1019.5 1019.4 0.0
21/08:30am 16.0 13.6 11.4 74 2.5 S 15 24 8 13 1019.2 1019.1 0.0
21/08:00am 16.0 13.7 11.6 75 2.4 SSW 15 26 8 14 1018.6 1018.5 0.0
21/07:30am 15.4 13.1 10.6 73 2.5 SSW 13 24 7 13 1018.3 1018.2 0.0
21/07:00am 15.0 12.7 10.6 75 2.3 SSW 13 19 7 10 1017.9 1017.8 0.0
21/06:30am 15.1 12.9 10.7 75 2.3 SSW 13 20 7 11 1017.6 1017.5 0.0
21/06:00am 14.5 13.8 11.3 81 1.7 SW 6 13 3 7 1017.5 1017.4 0.0
21/05:30am 14.3 13.5 11.1 81 1.7 WSW 6 15 3 8 1017.3 1017.2 0.0
21/05:00am 14.4 13.9 10.8 79 1.9 W 4 7 2 4 1017.1 1017.0 0.0
21/04:30am 14.4 13.2 10.4 77 2.1 WSW 7 11 4 6 1017.1 1017.0 0.0
21/04:00am 14.6 13.6 11.0 79 1.9 WSW 7 15 4 8 1017.1 1017.0 0.0
21/03:30am 14.2 13.2 10.2 77 2.1 WSW 6 9 3 5 1017.2 1017.1 0.0
21/03:00am 13.4 12.4 10.4 82 1.6 W 6 9 3 5 1017.2 1017.1 0.0
21/02:30am 13.2 12.2 10.2 82 1.6 W 6 7 3 4 1017.2 1017.1 0.0
21/02:00am 13.6 12.7 10.6 82 1.6 WSW 6 9 3 5 1017.4 1017.3 0.0
21/01:30am 13.6 12.1 10.6 82 1.6 WSW 9 17 5 9 1017.8 1017.7 0.0
21/01:00am 14.8 13.0 9.6 71 2.7 SW 9 19 5 10 1017.8 1017.7 0.0
21/12:30am 15.6 13.2 8.6 63 3.6 SW 11 17 6 9 1017.9 1017.8 0.0
21/12:00am 15.5 13.5 8.5 63 3.5 WSW 9 15 5 8 1017.8 1017.7 0.0
 
Date/Time
EDT
Temp
°C
App
Temp
°C
Dew
Point
°C
Rel
Hum
%
Delta-T
°C
Wind Press
QNH
hPa
Press
MSL
hPa
Rain since
9am
mm
Dir  Spd
km/h
Gust
km/h
Spd
kts
Gust
kts
20/11:30pm 15.6 13.1 8.1 61 3.8 SW 11 24 6 13 1017.9 1017.8 0.0
20/11:00pm 15.2 13.5 8.2 63 3.5 WSW 7 13 4 7 1018.0 1017.9 0.0
20/10:30pm 15.2 12.7 8.0 62 3.6 SW 11 19 6 10 1017.8 1017.7 0.0
20/10:00pm 15.2 12.8 8.7 65 3.3 WSW 11 20 6 11 1017.5 1017.4 0.0
20/09:30pm 15.4 12.8 9.5 68 3.1 SW 13 32 7 17 1017.2 1017.1 0.0
20/09:00pm 15.2 13.4 9.3 68 3.0 WSW 9 15 5 8 1017.1 1017.0 0.0
20/08:30pm 15.4 12.8 9.5 68 3.1 SW 13 28 7 15 1016.7 1016.6 0.0
20/08:00pm 15.6 13.9 9.9 69 3.0 WSW 9 19 5 10 1016.4 1016.3 0.0
20/07:30pm 15.8 13.7 9.9 68 3.1 SW 11 20 6 11 1016.0 1015.9 0.0
20/07:00pm 15.9 12.9 9.3 65 3.4 SW 15 28 8 15 1015.6 1015.5 0.0
20/06:30pm 16.4 14.3 9.8 65 3.5 WSW 11 20 6 11 1015.6 1015.5 0.0
20/06:00pm 16.7 14.5 9.4 62 3.8 SW 11 19 6 10 1015.6 1015.5 0.0
20/05:30pm 17.3 14.4 9.7 61 4.0 SW 15 22 8 12 1015.6 1015.5 0.0
20/05:00pm 16.7 14.3 10.1 65 3.5 SW 13 26 7 14 1015.6 1015.5 0.0
20/04:30pm 16.5 13.5 9.2 62 3.8 SSW 15 22 8 12 1015.6 1015.5 0.0
20/04:00pm 16.7 13.9 9.9 64 3.6 SSW 15 24 8 13 1015.7 1015.6 0.0
20/03:30pm 16.6 13.9 9.1 61 3.9 SW 13 22 7 12 1015.9 1015.8 0.0
20/03:00pm 17.0 14.8 9.2 60 4.0 SW 11 19 6 10 1016.3 1016.2 0.0
20/02:30pm 16.1 13.0 10.2 68 3.1 SSW 17 28 9 15 1016.5 1016.4 0.0
20/02:00pm 17.2 13.7 10.1 63 3.8 SW 19 28 10 15 1016.4 1016.3 0.0
20/01:30pm 16.4 13.3 8.9 61 3.9 SW 15 26 8 14 1016.3 1016.2 0.0
20/01:00pm 16.2 12.9 9.4 64 3.5 SW 17 26 9 14 1016.5 1016.4 0.0
20/12:30pm 15.8 13.1 9.0 64 3.5 SSW 13 24 7 13 1016.6 1016.5 0.0
20/12:00pm 15.4 12.4 9.3 67 3.1 SW 15 30 8 16 1016.5 1016.4 0.0
20/11:30am 15.8 12.4 9.0 64 3.5 SW 17 30 9 16 1016.3 1016.2 0.0
20/11:00am 15.6 12.1 8.8 64 3.5 SW 17 26 9 14 1016.2 1016.1 0.0
20/10:30am 16.7 13.9 8.4 58 4.2 SSW 13 22 7 12 1015.9 1015.8 0.0
20/10:00am 15.8 12.1 6.5 54 4.5 SW 15 28 8 15 1015.6 1015.5 0.0
20/09:30am 15.5 12.3 7.0 57 4.2 SW 13 26 7 14 1015.4 1015.3 0.0
20/09:00am 15.1 11.5 6.9 58 4.0 SW 15 28 8 15 1015.2 1015.1 1.2
20/08:30am 14.9 11.5 7.7 62 3.6 SW 15 26 8 14 1014.7 1014.6 1.2
20/08:00am 14.7 11.7 7.7 63 3.5 SW 13 24 7 13 1014.5 1014.4 1.2
20/07:30am 14.7 11.3 7.5 62 3.6 SW 15 24 8 13 1014.1 1014.0 1.2
20/07:00am 14.7 11.0 8.0 64 3.3 SW 17 24 9 13 1013.8 1013.7 1.2
20/06:30am 14.8 11.5 8.1 64 3.4 SW 15 26 8 14 1013.5 1013.4 1.2
20/06:00am 14.5 11.4 8.7 68 2.9 WSW 15 30 8 16 1013.3 1013.2 1.2
20/05:30am 14.8 11.7 8.7 67 3.1 SW 15 26 8 14 1013.1 1013.0 1.2
20/05:00am 14.7 12.0 8.9 68 2.9 SW 13 26 7 14 1012.9 1012.8 1.2
20/04:30am 14.2 11.7 9.6 74 2.4 WSW 13 24 7 13 1012.9 1012.8 1.2
20/04:00am 14.5 11.2 9.7 73 2.5 WSW 17 24 9 13 1013.1 1013.0 1.2
20/03:30am 14.5 11.2 9.7 73 2.5 SW 17 28 9 15 1013.2 1013.1 1.2
20/03:00am 14.8 11.1 9.6 71 2.7 SW 19 28 10 15 1013.3 1013.2 1.2
20/02:30am 14.4 11.3 10.2 76 2.2 SW 17 28 9 15 1013.4 1013.3 1.2
20/02:00am 14.8 12.2 10.6 76 2.2 SW 15 28 8 15 1013.4 1013.3 1.2
20/01:30am 14.8 12.8 10.2 74 2.4 SW 11 19 6 10 1013.5 1013.4 1.2
20/01:00am 15.2 12.4 10.0 71 2.7 SSW 15 28 8 15 1013.7 1013.6 1.2
20/12:30am 15.2 11.8 9.1 67 3.1 SW 17 26 9 14 1013.6 1013.5 1.2
20/12:00am 14.9 11.6 9.5 70 2.8 SW 17 30 9 16 1013.7 1013.6 1.2
 
Date/Time
EDT
Temp
°C
App
Temp
°C
Dew
Point
°C
Rel
Hum
%
Delta-T
°C
Wind Press
QNH
hPa
Press
MSL
hPa
Rain since
9am
mm
Dir  Spd
km/h
Gust
km/h
Spd
kts
Gust
kts
19/11:30pm 15.3 11.2 10.1 71 2.7 SW 22 35 12 19 1013.7 1013.6 1.2
19/11:00pm 15.3 11.1 9.9 70 2.8 SW 22 37 12 20 1013.7 1013.6 1.2
19/10:30pm 15.6 11.9 9.5 67 3.2 SW 19 32 10 17 1013.6 1013.5 1.2
19/10:00pm 15.9 12.4 10.2 69 3.0 SSW 19 32 10 17 1013.5 1013.4 1.2
19/09:30pm 16.0 11.5 10.1 68 3.1 SSW 24 39 13 21 1013.1 1013.0 1.2
19/09:00pm 15.9 11.4 10.2 69 3.0 SW 24 39 13 21 1012.9 1012.8 1.2
19/08:30pm 16.1 11.8 10.6 70 2.9 SW 24 37 13 20 1012.7 1012.6 1.2
19/08:00pm 16.1 12.1 10.6 70 2.9 SW 22 35 12 19 1012.5 1012.4 1.2
19/07:30pm 16.3 11.2 10.6 69 3.0 SW 28 46 15 25 1012.2 1012.1 1.2
19/07:10pm 16.7 11.5 10.3 66 3.4 SW 28 46 15 25 1011.9 1011.8 1.2
19/07:00pm 17.3 13.4 10.9 66 3.4 SW 22 39 12 21 1011.8 1011.7 1.2
19/06:30pm 17.2 12.3 10.1 63 3.8 SW 26 43 14 23 1011.5 1011.4 1.2
19/06:06pm 17.3 11.8 9.2 59 4.2 SW 28 46 15 25 1011.2 1011.1 1.2
19/06:00pm 17.3 12.7 9.5 60 4.1 SW 24 39 13 21 1011.2 1011.1 1.2
19/05:30pm 17.5 11.5 8.6 56 4.6 SW 30 46 16 25 1011.2 1011.1 1.2
19/05:00pm 18.2 13.2 9.5 57 4.6 SW 26 44 14 24 1011.0 1010.9 1.2
19/04:30pm 18.4 13.0 11.0 62 4.0 SW 30 52 16 28 1010.9 1010.8 1.2
19/04:25pm 18.1 13.1 11.0 63 3.8 SW 28 52 15 28 1010.8 1010.7 1.2
19/04:00pm 16.9 12.0 9.8 63 3.7 SW 26 41 14 22 1010.7 1010.6 1.2

Other formats

Comma delimited format used in spreadsheet applications
http://www.bom.gov.au/fwo/IDV60801/IDV60801.94892.axf

JavaScript Object Notation format (JSON) in row-major order
http://www.bom.gov.au/fwo/IDV60801/IDV60801.94892.json

Data quality

Most of these data are generated automatically and are frequently updated. Quality checks on data are not normally performed. It is possible for incorrect values to appear. Refer to information at About Latest Weather Observations and please check the disclaimer before using these data.